createdAt,value
2023-08-08T00:00:22.997Z,88.91
2023-08-08T00:02:49.652Z,86.22
2023-08-08T00:05:17.021Z,85.99
2023-08-08T00:07:43.602Z,86.00
2023-08-08T00:10:10.614Z,86.43
2023-08-08T00:12:37.156Z,86.60
2023-08-08T00:15:04.070Z,86.24
2023-08-08T00:17:30.642Z,85.53
2023-08-08T00:19:57.330Z,85.00
2023-08-08T00:22:23.914Z,83.76
2023-08-08T00:24:50.462Z,85.04
2023-08-08T00:27:17.018Z,83.40
2023-08-08T00:29:43.649Z,83.58
2023-08-08T00:32:10.196Z,83.32
2023-08-08T00:34:36.705Z,84.36
2023-08-08T00:37:03.419Z,85.10
2023-08-08T00:39:29.948Z,86.22
2023-08-08T00:41:56.913Z,85.03
2023-08-08T00:44:23.872Z,85.85
2023-08-08T00:46:50.705Z,86.16
2023-08-08T00:49:17.390Z,85.48
2023-08-08T00:51:44.229Z,85.33
2023-08-08T00:54:11.417Z,84.93
2023-08-08T00:56:38.043Z,84.43
2023-08-08T00:59:05.359Z,84.08
2023-08-08T01:01:31.929Z,84.20
2023-08-08T01:03:59.311Z,82.41
2023-08-08T01:07:11.050Z,83.74
2023-08-08T01:09:58.066Z,84.62
2023-08-08T01:12:26.668Z,82.61
2023-08-08T01:14:55.265Z,83.04
2023-08-08T01:17:23.301Z,85.05
2023-08-08T01:19:50.239Z,84.29
2023-08-08T01:22:25.898Z,85.36
2023-08-08T01:24:55.284Z,85.51
2023-08-08T01:27:23.177Z,85.74
2023-08-08T01:29:49.768Z,85.97
2023-08-08T01:32:16.456Z,85.45
2023-08-08T01:34:43.361Z,84.47
2023-08-08T01:37:24.094Z,85.50
2023-08-08T01:39:54.284Z,85.45
2023-08-08T01:42:24.720Z,83.43
2023-08-08T01:44:51.917Z,85.28
2023-08-08T01:47:18.736Z,84.02
2023-08-08T01:49:45.398Z,84.47
2023-08-08T01:52:12.072Z,83.11
2023-08-08T01:54:38.658Z,84.09
2023-08-08T01:57:05.955Z,83.61
2023-08-08T01:59:32.534Z,82.90
2023-08-08T02:01:59.277Z,83.55
2023-08-08T02:04:26.090Z,83.19
2023-08-08T02:06:52.728Z,85.43
2023-08-08T02:09:21.848Z,83.24
2023-08-08T02:11:48.725Z,84.56
2023-08-08T02:14:15.340Z,83.48
2023-08-08T02:16:43.572Z,82.40
2023-08-08T02:19:10.208Z,83.02
2023-08-08T02:21:36.892Z,84.51
2023-08-08T02:24:04.095Z,84.49
2023-08-08T02:26:30.772Z,84.60
2023-08-08T02:28:57.392Z,84.13
2023-08-08T02:31:23.979Z,84.09
2023-08-08T02:33:51.693Z,83.47
2023-08-08T02:36:19.438Z,84.13
2023-08-08T02:38:46.301Z,82.95
2023-08-08T02:41:12.944Z,85.27
2023-08-08T02:43:39.561Z,84.23
2023-08-08T02:46:06.202Z,83.22
2023-08-08T02:48:33.843Z,84.30
2023-08-08T02:51:00.480Z,82.95
2023-08-08T02:53:27.074Z,84.38
2023-08-08T02:55:53.660Z,82.56
2023-08-08T02:58:20.243Z,83.73
2023-08-08T03:00:46.896Z,83.27
2023-08-08T03:03:13.485Z,82.98
2023-08-08T03:05:40.059Z,83.31
2023-08-08T03:08:06.956Z,82.88
2023-08-08T03:10:33.604Z,85.00
2023-08-08T03:13:00.189Z,85.08
2023-08-08T03:15:26.730Z,83.43
2023-08-08T03:17:53.323Z,84.35
2023-08-08T03:20:20.306Z,84.94
2023-08-08T03:22:46.928Z,83.83
2023-08-08T03:25:13.533Z,85.03
2023-08-08T03:27:40.156Z,83.19
2023-08-08T03:30:07.806Z,84.52
2023-08-08T03:32:34.458Z,83.12
2023-08-08T03:35:01.040Z,85.58
2023-08-08T03:37:27.616Z,84.16
2023-08-08T03:39:54.244Z,83.62
2023-08-08T03:42:20.873Z,83.28
2023-08-08T03:44:47.500Z,85.26
2023-08-08T03:47:19.961Z,85.01
2023-08-08T03:49:47.087Z,85.00
2023-08-08T03:52:14.049Z,83.80
2023-08-08T03:54:40.974Z,84.76
2023-08-08T03:57:07.779Z,84.41
2023-08-08T03:59:34.359Z,84.07
2023-08-08T04:02:01.418Z,83.80
2023-08-08T04:04:28.336Z,83.86
2023-08-08T04:06:54.902Z,83.63
2023-08-08T04:09:22.082Z,82.27
2023-08-08T04:11:48.820Z,83.91
2023-08-08T04:14:15.408Z,83.70
2023-08-08T04:16:42.075Z,83.55
2023-08-08T04:19:08.725Z,84.27
2023-08-08T04:21:35.313Z,82.06
2023-08-08T04:24:02.597Z,82.36
2023-08-08T04:26:29.211Z,81.95
2023-08-08T04:28:56.591Z,81.78
2023-08-08T04:31:26.157Z,82.36
2023-08-08T04:33:57.047Z,81.65
2023-08-08T04:36:24.302Z,81.86
2023-08-08T04:38:50.865Z,81.60
2023-08-08T04:41:17.468Z,81.14
2023-08-08T04:43:44.061Z,79.78
2023-08-08T04:46:10.887Z,81.45
2023-08-08T04:48:38.568Z,80.09
2023-08-08T04:51:09.724Z,79.63
2023-08-08T04:53:36.336Z,81.23
2023-08-08T04:56:03.143Z,80.47
2023-08-08T04:58:29.789Z,80.16
2023-08-08T05:00:56.403Z,79.95
2023-08-08T05:03:23.317Z,81.76
2023-08-08T05:05:49.992Z,82.32
2023-08-08T05:08:16.839Z,81.01
2023-08-08T05:10:43.461Z,80.44
2023-08-08T05:13:11.638Z,79.77
2023-08-08T05:15:38.218Z,80.35
2023-08-08T05:18:05.409Z,78.85
2023-08-08T05:20:32.030Z,79.84
2023-08-08T05:22:58.588Z,77.70
2023-08-08T05:25:25.228Z,78.09
2023-08-08T05:27:51.910Z,77.27
2023-08-08T05:30:18.571Z,77.35
2023-08-08T05:32:45.226Z,75.18
2023-08-08T05:35:11.853Z,74.22
2023-08-08T05:37:38.423Z,74.66
2023-08-08T05:40:07.327Z,74.19
2023-08-08T05:42:34.729Z,75.61
2023-08-08T05:45:01.382Z,75.14
2023-08-08T05:47:27.998Z,73.43
2023-08-08T05:49:55.013Z,73.48
2023-08-08T05:52:22.941Z,73.69
2023-08-08T05:54:49.604Z,74.29
2023-08-08T05:57:16.248Z,72.76
2023-08-08T05:59:45.837Z,73.11
2023-08-08T06:02:12.469Z,73.36
2023-08-08T06:04:39.086Z,72.81
2023-08-08T06:07:07.566Z,72.76
2023-08-08T06:09:37.821Z,72.23
2023-08-08T06:12:04.934Z,70.99
2023-08-08T06:14:32.140Z,71.86
2023-08-08T06:16:58.727Z,73.19
2023-08-08T06:19:25.379Z,73.49
2023-08-08T06:21:51.955Z,73.02
2023-08-08T06:24:18.768Z,73.22
2023-08-08T06:26:45.380Z,71.69
2023-08-08T06:29:13.427Z,74.48
2023-08-08T06:31:40.116Z,73.49
2023-08-08T06:34:07.032Z,74.11
2023-08-08T06:36:33.609Z,72.90
2023-08-08T06:39:00.200Z,72.95
2023-08-08T06:41:26.773Z,72.04
2023-08-08T06:43:53.497Z,71.66
2023-08-08T06:46:21.729Z,71.68
2023-08-08T06:48:49.014Z,69.51
2023-08-08T06:51:15.970Z,72.47
2023-08-08T06:53:42.548Z,72.55
2023-08-08T06:56:09.152Z,72.55
2023-08-08T06:58:35.712Z,71.36
2023-08-08T07:01:02.354Z,72.63
2023-08-08T07:03:29.152Z,73.89
2023-08-08T07:05:55.773Z,71.56
2023-08-08T07:08:22.937Z,72.97
2023-08-08T07:10:49.562Z,74.06
2023-08-08T07:13:16.683Z,71.29
2023-08-08T07:15:43.484Z,71.84
2023-08-08T07:18:10.407Z,72.63
2023-08-08T07:20:36.975Z,70.79
2023-08-08T07:23:03.865Z,71.54
2023-08-08T07:25:30.489Z,74.09
2023-08-08T07:27:57.216Z,71.27
2023-08-08T07:30:23.935Z,70.61
2023-08-08T07:32:50.576Z,70.76
2023-08-08T07:35:17.194Z,71.83
2023-08-08T07:37:44.303Z,71.34
2023-08-08T07:40:21.745Z,72.31
2023-08-08T07:42:49.569Z,72.15
2023-08-08T07:45:16.853Z,69.93
2023-08-08T07:47:43.478Z,69.58
2023-08-08T07:50:10.711Z,71.24
2023-08-08T07:52:39.432Z,71.44
2023-08-08T07:55:06.674Z,72.32
2023-08-08T07:57:36.500Z,72.16
2023-08-08T08:00:12.516Z,71.00
2023-08-08T08:02:40.558Z,70.88
2023-08-08T08:05:08.976Z,68.79
2023-08-08T08:07:36.718Z,68.79
2023-08-08T08:10:04.419Z,68.21
2023-08-08T08:12:31.767Z,68.52
2023-08-08T08:14:59.326Z,68.22
2023-08-08T08:17:25.990Z,67.98
2023-08-08T08:19:52.604Z,68.69
2023-08-08T08:22:19.298Z,67.91
2023-08-08T08:24:47.094Z,68.96
2023-08-08T08:27:14.232Z,66.53
2023-08-08T08:29:41.077Z,66.75
2023-08-08T08:32:07.854Z,66.31
2023-08-08T08:34:34.423Z,63.10
2023-08-08T08:37:01.008Z,63.62
2023-08-08T08:39:27.584Z,62.48
2023-08-08T08:42:02.873Z,61.60
2023-08-08T08:44:30.876Z,62.49
2023-08-08T08:47:02.620Z,61.64
2023-08-08T08:49:32.697Z,64.07
2023-08-08T08:52:05.914Z,63.09
2023-08-08T08:54:33.629Z,61.88
2023-08-08T08:57:00.466Z,61.49
2023-08-08T08:59:27.105Z,63.30
2023-08-08T09:01:54.882Z,64.72
2023-08-08T09:04:23.061Z,63.69
2023-08-08T09:06:51.583Z,65.31
2023-08-08T09:09:18.945Z,66.16
2023-08-08T09:11:55.937Z,66.76
2023-08-08T09:14:24.316Z,66.30
2023-08-08T09:16:55.510Z,66.20
2023-08-08T09:19:22.858Z,66.38
2023-08-08T09:21:51.254Z,66.13
2023-08-08T09:24:18.394Z,67.34
2023-08-08T09:26:46.085Z,68.22
2023-08-08T09:29:15.840Z,67.85
2023-08-08T09:31:42.803Z,67.75
2023-08-08T09:34:09.581Z,68.03
2023-08-08T09:36:36.387Z,68.66
2023-08-08T09:39:03.552Z,68.58
2023-08-08T09:41:30.659Z,69.31
2023-08-08T09:43:57.339Z,68.78
2023-08-08T09:46:23.996Z,65.87
2023-08-08T09:48:51.632Z,65.83
2023-08-08T09:51:18.431Z,67.42
2023-08-08T09:53:48.256Z,64.96
2023-08-08T09:56:15.425Z,66.63
2023-08-08T09:58:43.752Z,65.78
2023-08-08T10:01:11.622Z,62.87
2023-08-08T10:03:39.028Z,64.19
2023-08-08T10:06:06.542Z,62.67
2023-08-08T10:08:33.336Z,62.08
2023-08-08T10:11:00.517Z,63.35
2023-08-08T10:13:28.297Z,64.12
2023-08-08T10:15:56.319Z,62.38
2023-08-08T10:18:24.040Z,60.11
2023-08-08T10:20:52.018Z,60.99
2023-08-08T10:23:19.645Z,59.53
2023-08-08T10:25:52.583Z,60.71
2023-08-08T10:28:26.986Z,60.04
2023-08-08T10:30:56.804Z,59.72
2023-08-08T10:33:29.160Z,57.72
2023-08-08T10:36:10.010Z,57.64
2023-08-08T10:38:42.503Z,58.67
2023-08-08T10:41:27.997Z,58.57
2023-08-08T10:43:57.903Z,58.08
2023-08-08T10:46:29.308Z,58.38
2023-08-08T10:49:00.577Z,59.33
2023-08-08T10:51:53.882Z,59.57
2023-08-08T10:54:24.330Z,59.23
2023-08-08T10:56:56.318Z,56.54
2023-08-08T10:59:30.916Z,55.39
2023-08-08T11:01:58.508Z,56.12
2023-08-08T11:04:27.136Z,59.08
2023-08-08T11:06:55.469Z,56.39
2023-08-08T11:09:22.943Z,54.90
2023-08-08T11:11:49.700Z,56.16
2023-08-08T11:14:17.414Z,53.88
2023-08-08T11:16:46.000Z,54.17
2023-08-08T11:19:17.088Z,55.23
2023-08-08T11:21:45.359Z,53.18
2023-08-08T11:24:13.570Z,51.04
2023-08-08T11:26:42.249Z,54.16
2023-08-08T11:29:09.184Z,53.71
2023-08-08T11:31:36.606Z,52.36
2023-08-08T11:34:05.014Z,53.73
2023-08-08T11:36:33.846Z,52.63
2023-08-08T11:39:08.880Z,53.40
2023-08-08T11:41:36.163Z,52.44
2023-08-08T11:44:06.647Z,51.76
2023-08-08T11:46:33.490Z,52.13
2023-08-08T11:49:07.927Z,51.82
2023-08-08T11:51:35.647Z,52.69
2023-08-08T11:54:07.624Z,51.68
2023-08-08T11:56:35.803Z,52.90
2023-08-08T11:59:03.147Z,53.05
2023-08-08T12:01:32.517Z,50.66
2023-08-08T12:03:59.357Z,46.94
2023-08-08T12:06:30.403Z,45.75
2023-08-08T12:08:57.307Z,45.57
2023-08-08T12:11:26.396Z,46.61
2023-08-08T12:14:00.848Z,46.63
2023-08-08T12:16:33.863Z,47.07
2023-08-08T12:19:05.407Z,48.33
2023-08-08T12:21:34.262Z,49.82
2023-08-08T12:24:01.233Z,49.77
2023-08-08T12:26:27.810Z,49.27
2023-08-08T12:28:55.533Z,48.60
2023-08-08T12:31:22.396Z,50.12
2023-08-08T12:33:50.020Z,48.78
2023-08-08T12:36:16.809Z,48.75
2023-08-08T12:38:43.537Z,49.18
2023-08-08T12:41:12.003Z,48.88
2023-08-08T12:43:38.672Z,48.24
2023-08-08T12:46:05.377Z,49.06
2023-08-08T12:48:32.406Z,47.00
2023-08-08T12:50:59.148Z,45.29
2023-08-08T12:53:26.239Z,45.65
2023-08-08T12:55:52.859Z,45.96
2023-08-08T12:58:20.133Z,46.69
2023-08-08T13:00:47.480Z,46.48
2023-08-08T13:03:14.313Z,46.28
2023-08-08T13:05:41.213Z,47.60
2023-08-08T13:08:07.873Z,47.27
2023-08-08T13:10:34.573Z,47.57
2023-08-08T13:13:01.258Z,48.17
2023-08-08T13:15:27.885Z,48.04
2023-08-08T13:17:54.558Z,47.61
2023-08-08T13:20:21.168Z,45.61
2023-08-08T13:22:47.756Z,45.69
2023-08-08T13:25:14.403Z,43.67
2023-08-08T13:27:41.042Z,46.31
2023-08-08T13:30:08.349Z,45.20
2023-08-08T13:32:34.991Z,47.85
2023-08-08T13:35:01.527Z,48.48
2023-08-08T13:37:28.097Z,53.31
2023-08-08T13:39:54.699Z,65.47
2023-08-08T13:42:21.271Z,62.11
2023-08-08T13:44:47.898Z,64.43
2023-08-08T13:47:14.507Z,55.43
2023-08-08T13:49:41.071Z,57.00
2023-08-08T13:52:07.708Z,56.50
2023-08-08T13:54:34.309Z,60.14
2023-08-08T13:57:00.892Z,61.05
2023-08-08T13:59:27.911Z,60.40
2023-08-08T14:01:54.543Z,57.75
2023-08-08T14:04:21.212Z,57.76
2023-08-08T14:06:47.767Z,56.96
2023-08-08T14:09:16.489Z,54.70
2023-08-08T14:11:44.774Z,53.97
2023-08-08T14:14:11.322Z,53.80
2023-08-08T14:16:38.076Z,53.43
2023-08-08T14:19:04.789Z,56.17
2023-08-08T14:21:31.372Z,56.26
2023-08-08T14:23:57.974Z,55.17
2023-08-08T14:26:24.566Z,55.39
2023-08-08T14:28:51.132Z,54.87
2023-08-08T14:31:17.735Z,53.85
2023-08-08T14:33:44.378Z,53.70
2023-08-08T14:36:10.971Z,53.20
2023-08-08T14:38:38.418Z,51.59
2023-08-08T14:41:05.165Z,50.60
2023-08-08T14:43:31.967Z,50.61
2023-08-08T14:45:58.686Z,50.17
2023-08-08T14:48:25.550Z,51.16
2023-08-08T14:50:52.331Z,51.72
2023-08-08T14:53:18.987Z,48.78
2023-08-08T14:55:45.707Z,47.65
2023-08-08T14:58:13.564Z,48.92
2023-08-08T15:00:40.243Z,50.56
2023-08-08T15:03:07.000Z,51.78
2023-08-08T15:05:33.836Z,54.45
2023-08-08T15:08:00.548Z,53.54
2023-08-08T15:10:27.234Z,52.08
2023-08-08T15:12:54.007Z,50.77
2023-08-08T15:15:23.960Z,51.37
2023-08-08T15:17:50.840Z,54.13
2023-08-08T15:20:17.445Z,56.01
2023-08-08T15:22:44.337Z,55.65
2023-08-08T15:25:10.983Z,55.54
2023-08-08T15:27:37.805Z,54.82
2023-08-08T15:30:05.539Z,54.07
2023-08-08T15:32:32.197Z,49.52
2023-08-08T15:34:59.480Z,46.88
2023-08-08T15:37:26.093Z,44.63
2023-08-08T15:39:52.753Z,47.11
2023-08-08T15:42:19.362Z,48.39
2023-08-08T15:44:46.034Z,46.64
2023-08-08T15:47:13.659Z,45.64
2023-08-08T15:49:40.283Z,46.69
2023-08-08T15:52:07.005Z,48.11
2023-08-08T15:54:33.665Z,50.20
2023-08-08T15:57:03.360Z,51.97
2023-08-08T15:59:31.361Z,51.96
2023-08-08T16:01:58.259Z,52.22
2023-08-08T16:04:24.887Z,53.21
2023-08-08T16:06:51.475Z,52.47
2023-08-08T16:09:18.127Z,52.98
2023-08-08T16:11:44.973Z,53.15
2023-08-08T16:14:11.570Z,53.27
2023-08-08T16:16:38.164Z,53.01
2023-08-08T16:19:05.053Z,53.81
2023-08-08T16:21:31.719Z,54.94
2023-08-08T16:23:58.358Z,55.39
2023-08-08T16:26:24.951Z,55.83
2023-08-08T16:28:51.636Z,55.60
2023-08-08T16:31:18.340Z,57.52
2023-08-08T16:33:45.052Z,57.87
2023-08-08T16:36:11.637Z,58.57
2023-08-08T16:38:38.310Z,58.39
2023-08-08T16:41:05.316Z,59.56
2023-08-08T16:43:37.089Z,60.07
2023-08-08T16:46:04.217Z,60.90
2023-08-08T16:48:31.633Z,60.87
2023-08-08T16:50:58.324Z,62.90
2023-08-08T16:53:25.583Z,63.66
2023-08-08T16:55:52.209Z,63.26
2023-08-08T16:58:18.776Z,63.33
2023-08-08T17:00:45.501Z,62.18
2023-08-08T17:03:14.493Z,63.05
2023-08-08T17:05:41.765Z,63.40
2023-08-08T17:08:08.502Z,64.00
2023-08-08T17:10:36.969Z,64.28
2023-08-08T17:13:04.370Z,64.08
2023-08-08T17:15:30.957Z,62.83
2023-08-08T17:17:57.575Z,61.33
2023-08-08T17:20:24.639Z,59.14
2023-08-08T17:22:51.325Z,61.66
2023-08-08T17:25:18.162Z,62.35
2023-08-08T17:27:45.458Z,63.73
2023-08-08T17:30:13.085Z,63.63
2023-08-08T17:32:39.791Z,65.26
2023-08-08T17:35:08.122Z,66.48
2023-08-08T17:37:34.903Z,65.80
2023-08-08T17:40:01.481Z,65.86
2023-08-08T17:42:28.082Z,66.77
2023-08-08T17:44:54.812Z,67.58
2023-08-08T17:47:21.695Z,68.53
2023-08-08T17:49:48.286Z,68.55
2023-08-08T17:52:14.884Z,68.09
2023-08-08T17:54:41.468Z,67.50
2023-08-08T17:57:08.057Z,67.87
2023-08-08T17:59:34.675Z,67.69
2023-08-08T18:02:01.641Z,66.42
2023-08-08T18:04:28.347Z,65.83
2023-08-08T18:06:54.890Z,66.23
2023-08-08T18:09:22.756Z,64.35
2023-08-08T18:11:49.578Z,64.99
2023-08-08T18:14:16.336Z,64.27
2023-08-08T18:16:42.980Z,65.18
2023-08-08T18:19:09.707Z,67.56
2023-08-08T18:21:37.389Z,68.29
2023-08-08T18:24:04.729Z,68.92
2023-08-08T18:26:31.329Z,69.72
2023-08-08T18:28:57.915Z,70.12
2023-08-08T18:31:24.608Z,70.32
2023-08-08T18:33:58.837Z,70.55
2023-08-08T18:36:26.146Z,70.94
2023-08-08T18:38:52.930Z,70.25
2023-08-08T18:41:19.948Z,71.44
2023-08-08T18:43:46.849Z,71.16
2023-08-08T18:46:14.331Z,71.04
2023-08-08T18:48:41.326Z,71.26
2023-08-08T18:51:07.958Z,71.18
2023-08-08T18:53:36.366Z,71.58
2023-08-08T18:56:03.208Z,71.91
2023-08-08T18:58:29.840Z,71.69
2023-08-08T19:00:56.487Z,71.59
2023-08-08T19:03:23.267Z,71.98
2023-08-08T19:05:49.949Z,72.05
2023-08-08T19:08:16.549Z,72.67
2023-08-08T19:10:43.163Z,72.84
2023-08-08T19:13:09.803Z,72.85
2023-08-08T19:15:37.158Z,72.92
2023-08-08T19:18:04.075Z,72.86
2023-08-08T19:20:30.732Z,72.55
2023-08-08T19:22:57.530Z,71.89
2023-08-08T19:25:24.189Z,72.91
2023-08-08T19:27:50.812Z,72.27
2023-08-08T19:30:17.472Z,72.38
2023-08-08T19:32:44.133Z,72.73
2023-08-08T19:35:10.831Z,72.67
2023-08-08T19:37:37.488Z,72.95
2023-08-08T19:40:04.380Z,73.43
2023-08-08T19:42:31.068Z,72.49
2023-08-08T19:44:57.737Z,72.83
2023-08-08T19:47:24.391Z,73.31
2023-08-08T19:49:51.079Z,72.69
2023-08-08T19:52:17.769Z,73.38
2023-08-08T19:54:44.443Z,73.12
2023-08-08T19:57:11.022Z,73.07
2023-08-08T19:59:37.702Z,73.32
2023-08-08T20:02:05.852Z,73.56
2023-08-08T20:04:32.488Z,73.36
2023-08-08T20:06:59.281Z,73.05
2023-08-08T20:09:26.046Z,73.28
2023-08-08T20:11:52.971Z,72.69
2023-08-08T20:14:19.731Z,73.06
2023-08-08T20:16:46.541Z,73.86
2023-08-08T20:19:13.516Z,73.40
2023-08-08T20:21:40.160Z,73.39
2023-08-08T20:24:09.327Z,73.35
2023-08-08T20:26:36.020Z,73.31
2023-08-08T20:29:02.679Z,73.28
2023-08-08T20:31:29.337Z,72.78
2023-08-08T20:33:57.540Z,72.72
2023-08-08T20:36:24.690Z,72.68
2023-08-08T20:38:51.404Z,73.42
2023-08-08T20:41:18.053Z,73.08
2023-08-08T20:43:44.701Z,73.46
2023-08-08T20:46:14.604Z,73.74
2023-08-08T20:48:42.046Z,73.30
2023-08-08T20:51:08.673Z,73.31
2023-08-08T20:53:35.309Z,73.49
2023-08-08T20:56:03.774Z,73.38
2023-08-08T20:58:30.941Z,73.13
2023-08-08T21:00:57.623Z,72.83
2023-08-08T21:03:24.329Z,73.37
2023-08-08T21:05:51.067Z,72.73
2023-08-08T21:08:17.733Z,72.64
2023-08-08T21:10:44.489Z,73.29
2023-08-08T21:13:11.086Z,74.19
2023-08-08T21:15:37.669Z,73.17
2023-08-08T21:18:04.674Z,72.87
2023-08-08T21:20:31.294Z,73.80
2023-08-08T21:22:58.465Z,73.62
2023-08-08T21:25:25.309Z,73.28
2023-08-08T21:27:51.970Z,72.96
2023-08-08T21:30:18.592Z,72.47
2023-08-08T21:32:45.300Z,72.88
2023-08-08T21:35:11.957Z,72.19
2023-08-08T21:37:39.671Z,71.62
2023-08-08T21:40:07.696Z,71.71
2023-08-08T21:42:34.344Z,71.17
2023-08-08T21:45:01.067Z,71.33
2023-08-08T21:47:27.664Z,71.40
2023-08-08T21:49:54.249Z,72.54
2023-08-08T21:52:20.929Z,73.29
2023-08-08T21:54:47.502Z,72.83
2023-08-08T21:57:14.374Z,73.36
2023-08-08T21:59:40.957Z,74.04
2023-08-08T22:02:07.669Z,73.48
2023-08-08T22:04:37.228Z,73.29
2023-08-08T22:07:04.650Z,74.21
2023-08-08T22:09:31.218Z,74.55
2023-08-08T22:11:57.942Z,74.55
2023-08-08T22:14:25.230Z,74.37
2023-08-08T22:16:52.053Z,73.97
2023-08-08T22:19:18.739Z,74.12
2023-08-08T22:21:45.329Z,73.83
2023-08-08T22:24:11.896Z,73.29
2023-08-08T22:26:38.504Z,73.60
2023-08-08T22:29:05.052Z,72.67
2023-08-08T22:31:31.795Z,73.06
2023-08-08T22:34:01.158Z,73.05
2023-08-08T22:36:28.129Z,72.78
2023-08-08T22:38:54.768Z,72.99
2023-08-08T22:41:21.445Z,72.06
2023-08-08T22:43:48.072Z,71.96
2023-08-08T22:46:14.724Z,71.80
2023-08-08T22:48:41.336Z,71.66
2023-08-08T22:51:07.880Z,71.34
2023-08-08T22:53:34.488Z,71.69
2023-08-08T22:56:01.168Z,71.61
2023-08-08T22:58:27.806Z,71.13
2023-08-08T23:00:54.402Z,72.70
2023-08-08T23:03:21.018Z,72.25
2023-08-08T23:05:47.883Z,73.16
2023-08-08T23:08:14.488Z,73.24
2023-08-08T23:10:41.611Z,73.19
2023-08-08T23:13:08.207Z,73.38
2023-08-08T23:15:34.865Z,73.41
2023-08-08T23:18:01.464Z,73.23
2023-08-08T23:20:28.160Z,73.09
2023-08-08T23:22:54.740Z,73.37
2023-08-08T23:25:23.782Z,73.68
2023-08-08T23:27:50.722Z,73.53
2023-08-08T23:30:17.348Z,73.53
2023-08-08T23:32:46.769Z,73.89
2023-08-08T23:35:21.004Z,73.88
2023-08-08T23:37:47.586Z,73.58
2023-08-08T23:40:14.466Z,73.24
2023-08-08T23:42:41.029Z,73.33
2023-08-08T23:45:08.382Z,73.11
2023-08-08T23:47:35.002Z,72.86
2023-08-08T23:50:04.915Z,72.57
2023-08-08T23:52:31.528Z,72.96
2023-08-08T23:54:59.056Z,72.61
2023-08-08T23:57:25.629Z,72.36
2023-08-08T23:59:52.491Z,73.09
